^^
Grace C. Lehan Memorial Weather Station Historical Data
Daily Summary for October 24, 2021 Units:  English    Metric   Both
Daily Weekly Monthly Yearly
  High: Low: Average:
Temperature: 61.1 °F 41.1 °F 52.1 °F
Dew Point: 49.4 °F 38.5 °F 42.9 °F
Humidity: 92% 50.7% 72%
Wind Speed: 0.9mph 0mph 0mph
Wind Gust: 10mph - -
Wind- - SW
Pressure: 30.16 in 29.96 in -
Precipitation: 0.03 in    
 
 
Tabular Data for October 24, 2021
Time Temperature Dew Point Pressure Wind Wind Speed Wind Gust Humidity Rainfall Rate (Hourly) solar
00:00 50.7 °F 45.4 °F 29.97 in Calm     82% 0.00 in 0 W/m2
00:09 50.4 °F 45.2 °F 29.97 in Calm     82.4% 0.00 in 0 W/m2
00:14 50.2 °F 44.9 °F 29.96 in Calm     82% 0.00 in 0 W/m2
00:19 50 °F 44.6 °F 29.97 in Calm     81.6% 0.00 in 0 W/m2
00:24 49.7 °F 44.1 °F 29.97 in Calm     81% 0.00 in 0 W/m2
00:29 49.6 °F 44 °F 29.97 in Calm     81% 0.00 in 0 W/m2
00:34 49.4 °F 43.9 °F 29.97 in Calm     81.1% 0.00 in 0 W/m2
00:39 49.2 °F 44 °F 29.97 in Calm     82% 0.00 in 0 W/m2
00:44 49.1 °F 43.8 °F 29.97 in Calm     82% 0.00 in 0 W/m2
00:49 48.9 °F 43.6 °F 29.98 in Calm     82% 0.00 in 0 W/m2
00:54 48.7 °F 43.5 °F 29.98 in Calm     82.2% 0.00 in 0 W/m2
00:59 48.5 °F 43.6 °F 29.98 in Calm     83% 0.00 in 0 W/m2
01:04 48.3 °F 43.4 °F 29.98 in Calm     83% 0.00 in 0 W/m2
01:09 48.1 °F 43.4 °F 29.98 in Calm     83.5% 0.00 in 0 W/m2
01:14 47.9 °F 42.7 °F 29.99 in Calm     82% 0.00 in 0 W/m2
01:19 47.7 °F 42.5 °F 29.99 in Calm     82% 0.00 in 0 W/m2
01:24 47.6 °F 42.4 °F 29.99 in Calm     82% 0.00 in 0 W/m2
01:29 47.4 °F 42.2 °F 29.99 in Calm     82% 0.00 in 0 W/m2
01:34 47.3 °F 42.3 °F 29.99 in Calm     82.7% 0.00 in 0 W/m2
01:39 47.2 °F 42.4 °F 29.99 in Calm     83.3% 0.00 in 0 W/m2
01:44 47 °F 42.4 °F 29.99 in Calm     84% 0.00 in 0 W/m2
01:49 46.8 °F 42.4 °F 30.00 in Calm     84.4% 0.00 in 0 W/m2
01:54 46.6 °F 42.4 °F 30.00 in Calm     85% 0.00 in 0 W/m2
01:59 46.4 °F 42.2 °F 30.00 in Calm     85% 0.00 in 0 W/m2
02:04 46.2 °F 42 °F 30.00 in Calm     85% 0.00 in 0 W/m2
02:09 46 °F 41.8 °F 30.00 in NW 0.7 mph 4 mph 85% 0.00 in 0 W/m2
02:14 45.9 °F 41.7 °F 30.00 in NW 0.1 mph 4 mph 85% 0.00 in 0 W/m2
02:19 45.8 °F 41.7 °F 30.01 in Calm   4 mph 85.5% 0.00 in 0 W/m2
02:24 45.7 °F 41.7 °F 30.01 in Calm   4 mph 86% 0.00 in 0 W/m2
02:29 45.5 °F 41.6 °F 30.01 in Calm   4 mph 86% 0.00 in 0 W/m2
02:34 45.3 °F 41.4 °F 30.01 in Calm   4 mph 86% 0.00 in 0 W/m2
02:39 45.2 °F 41.3 °F 30.01 in Calm     86% 0.00 in 0 W/m2
02:44 45.1 °F 41.1 °F 30.00 in Calm     86% 0.00 in 0 W/m2
02:49 44.9 °F 41 °F 30.00 in Calm     86% 0.00 in 0 W/m2
02:54 44.8 °F 40.8 °F 30.00 in Calm     85.8% 0.00 in 0 W/m2
02:59 44.7 °F 40.5 °F 30.01 in Calm     85% 0.00 in 0 W/m2
03:04 44.6 °F 40.4 °F 30.01 in Calm     85% 0.00 in 0 W/m2
03:09 44.6 °F 40.4 °F 30.01 in Calm     85% 0.00 in 0 W/m2
03:14 44.6 °F 40.4 °F 30.01 in Calm     85% 0.00 in 0 W/m2
03:19 44.6 °F 40.4 °F 30.01 in Calm     85% 0.00 in 0 W/m2
03:24 44.5 °F 40.3 °F 30.02 in Calm     85% 0.00 in 0 W/m2
03:29 44.5 °F 40.3 °F 30.02 in Calm     85% 0.00 in 0 W/m2
03:34 44.5 °F 40.4 °F 30.02 in Calm     85.6% 0.00 in 0 W/m2
03:39 44.4 °F 40.5 °F 30.02 in Calm     86% 0.00 in 0 W/m2
03:44 44.3 °F 40.4 °F 30.02 in Calm     86% 0.00 in 0 W/m2
03:49 44.2 °F 40.3 °F 30.02 in Calm     86% 0.00 in 0 W/m2
03:54 44.1 °F 40.2 °F 30.02 in Calm     86% 0.00 in 0 W/m2
03:59 44.1 °F 40.2 °F 30.03 in Calm     86% 0.00 in 0 W/m2
04:00 44.1 °F 40.2 °F 30.03 in Calm     86% 0.00 in 0 W/m2
04:09 44.2 °F 40 °F 30.04 in Calm     85% 0.00 in 0 W/m2
04:14 44.2 °F 40 °F 30.04 in Calm     85% 0.00 in 0 W/m2
04:19 44.1 °F 39.9 °F 30.04 in Calm     85% 0.00 in 0 W/m2
04:24 43.9 °F 39.8 °F 30.04 in Calm     85.3% 0.00 in 0 W/m2
04:28 43.7 °F 39.8 °F 30.04 in Calm     86% 0.00 in 0 W/m2
04:34 43.5 °F 39.9 °F 30.05 in Calm     87% 0.00 in 0 W/m2
04:39 43.3 °F 39.8 °F 30.05 in Calm     87.1% 0.00 in 0 W/m2
04:44 43.2 °F 40 °F 30.05 in Calm     88.2% 0.00 in 0 W/m2
04:49 43.1 °F 40.1 °F 30.05 in Calm     89.1% 0.00 in 0 W/m2
04:54 43.1 °F 39.8 °F 30.06 in Calm     88.2% 0.00 in 0 W/m2
04:59 43.1 °F 40.1 °F 30.06 in Calm     89% 0.00 in 0 W/m2
05:04 43 °F 40 °F 30.06 in Calm     89% 0.00 in 0 W/m2
05:09 42.9 °F 39.8 °F 30.06 in Calm     88.5% 0.00 in 0 W/m2
05:14 42.8 °F 39.5 °F 30.06 in Calm     88% 0.00 in 0 W/m2
05:19 42.8 °F 39.7 °F 30.06 in Calm     88.9% 0.00 in 0 W/m2
05:24 42.8 °F 39.8 °F 30.07 in Calm     89% 0.00 in 0 W/m2
05:29 42.8 °F 39.8 °F 30.07 in Calm     89% 0.00 in 0 W/m2
05:34 42.9 °F 39.9 °F 30.07 in Calm     89% 0.00 in 0 W/m2
05:39 42.9 °F 39.7 °F 30.07 in Calm     88.3% 0.00 in 0 W/m2
05:44 42.9 °F 39.7 °F 30.07 in NW 0.1 mph 1 mph 88.2% 0.00 in 0 W/m2
05:49 42.9 °F 39.6 °F 30.07 in Calm   1 mph 88% 0.00 in 0 W/m2
05:54 42.7 °F 39.4 °F 30.07 in Calm   1 mph 88% 0.00 in 0 W/m2
05:59 42.5 °F 39.2 °F 30.08 in Calm   1 mph 88% 0.00 in 0 W/m2
06:04 42.3 °F 39 °F 30.08 in Calm   1 mph 88% 0.00 in 0 W/m2
06:09 42.1 °F 38.8 °F 30.08 in Calm     88% 0.00 in 0 W/m2
06:14 41.9 °F 38.7 °F 30.09 in Calm     88.5% 0.00 in 0 W/m2
06:19 41.7 °F 38.7 °F 30.09 in Calm     89% 0.00 in 0 W/m2
06:24 41.6 °F 38.6 °F 30.09 in Calm     89% 0.00 in 0 W/m2
06:29 41.6 °F 38.9 °F 30.09 in Calm     89.9% 0.00 in 0 W/m2
06:34 41.6 °F 38.9 °F 30.09 in Calm     90% 0.00 in 0 W/m2
06:39 41.6 °F 38.9 °F 30.09 in Calm     90% 0.00 in 0 W/m2
06:44 41.6 °F 38.9 °F 30.09 in Calm     90% 0.00 in 0 W/m2
06:49 41.7 °F 38.9 °F 30.09 in Calm     90% 0.00 in 0 W/m2
06:54 41.6 °F 38.9 °F 30.09 in Calm     90% 0.00 in 0 W/m2
06:59 41.5 °F 38.8 °F 30.09 in Calm     90% 0.00 in 0 W/m2
07:04 41.5 °F 38.8 °F 30.10 in Calm     90.2% 0.00 in 0 W/m2
07:07 41.4 °F 39 °F 30.10 in Calm   1 mph 91% 0.00 in 0 W/m2
07:30 41.1 °F 38.7 °F 30.11 in Calm   1 mph 91% 0.00 in 3 W/m2
08:09 41.9 °F 39.8 °F 30.13 in Calm   1 mph 92% 0.00 in 26 W/m2
08:14 42.2 °F 40 °F 30.13 in Calm     92% 0.00 in 28 W/m2
08:19 42.5 °F 40.3 °F 30.14 in Calm   1 mph 92% 0.00 in 76 W/m2
08:24 42.9 °F 40.7 °F 30.14 in Calm   1 mph 92% 0.00 in 32 W/m2
08:29 43.3 °F 41 °F 30.14 in Calm   1 mph 91.5% 0.00 in 44 W/m2
08:34 43.7 °F 41.3 °F 30.14 in Calm   1 mph 91% 0.00 in 54 W/m2
08:39 44.2 °F 41.6 °F 30.14 in Calm     90.3% 0.00 in 142 W/m2
08:44 44.7 °F 41.7 °F 30.14 in Calm     89% 0.00 in 107 W/m2
08:49 45.3 °F 41.8 °F 30.14 in Calm     87.7% 0.00 in 146 W/m2
08:54 45.8 °F 41.9 °F 30.14 in Calm     86.2% 0.00 in 146 W/m2
08:59 46.3 °F 41.7 °F 30.15 in Calm     84% 0.00 in 128 W/m2
09:04 46.9 °F 42.1 °F 30.15 in Calm     83.3% 0.00 in 315 W/m2
09:09 47.6 °F 41.6 °F 30.15 in Calm     79.4% 0.00 in 330 W/m2
09:14 48.7 °F 41.8 °F 30.15 in NE 0.1 mph 2 mph 77% 0.00 in 346 W/m2
09:19 49.8 °F 42 °F 30.15 in ENE 0.2 mph 2 mph 74.5% 0.00 in 362 W/m2
09:24 50.7 °F 41.8 °F 30.15 in Calm   2 mph 71.3% 0.00 in 378 W/m2
09:28 51.5 °F 42.2 °F 30.15 in Calm   2 mph 70.5% 0.00 in 394 W/m2
09:34 52.4 °F 41.8 °F 30.15 in Calm   2 mph 67% 0.00 in 410 W/m2
09:39 53 °F 41.7 °F 30.15 in ENE 0.2 mph 2 mph 65.4% 0.00 in 424 W/m2
09:44 53.3 °F 41.6 °F 30.15 in Calm   2 mph 64.3% 0.00 in 438 W/m2
09:49 53.6 °F 41.2 °F 30.15 in ENE 0.2 mph 2 mph 62.7% 0.00 in 445 W/m2
09:54 53.9 °F 41.8 °F 30.15 in ENE 0.1 mph 2 mph 63.6% 0.00 in 455 W/m2
09:59 54.5 °F 42.3 °F 30.15 in Calm   2 mph 63.1% 0.00 in 462 W/m2
10:04 55.1 °F 41.6 °F 30.15 in Calm   2 mph 60.3% 0.00 in 476 W/m2
10:09 55.5 °F 42.9 °F 30.15 in Calm     62.4% 0.00 in 489 W/m2
10:14 56.1 °F 42.4 °F 30.15 in Calm     60% 0.00 in 503 W/m2
10:19 56.4 °F 42 °F 30.15 in Calm     58.5% 0.00 in 513 W/m2
10:24 56.7 °F 42 °F 30.15 in Calm     57.8% 0.00 in 520 W/m2
10:29 56.9 °F 42.4 °F 30.15 in Calm     58.2% 0.00 in 529 W/m2
10:34 57 °F 42 °F 30.15 in Calm     57.1% 0.00 in 540 W/m2
10:39 57 °F 40.3 °F 30.15 in ENE 0.1 mph 1 mph 53.6% 0.00 in 550 W/m2
10:44 56.8 °F 39.7 °F 30.15 in Calm   1 mph 52.7% 0.00 in 557 W/m2
10:49 56.5 °F 38.5 °F 30.15 in Calm   1 mph 50.7% 0.00 in 564 W/m2
10:54 56.3 °F 38.6 °F 30.15 in Calm   1 mph 51.2% 0.00 in 570 W/m2
10:59 56.5 °F 40.1 °F 30.15 in Calm   1 mph 53.9% 0.00 in 575 W/m2
11:04 57 °F 40.8 °F 30.16 in ENE 0.1 mph 1 mph 54.5% 0.00 in 582 W/m2
11:09 57.4 °F 40.6 °F 30.16 in ENE 0.2 mph 2 mph 53.2% 0.00 in 584 W/m2
11:14 57.7 °F 40 °F 30.15 in Calm   2 mph 51.6% 0.00 in 596 W/m2
11:19 57.9 °F 39.8 °F 30.14 in Calm   2 mph 50.9% 0.00 in 545 W/m2
11:24 58.2 °F 40.7 °F 30.14 in Calm   2 mph 52.1% 0.00 in 232 W/m2
11:29 58.3 °F 40.5 °F 30.15 in Calm   2 mph 51.5% 0.00 in 478 W/m2
11:34 58.3 °F 40.9 °F 30.15 in Calm   2 mph 52.3% 0.00 in 508 W/m2
11:39 58.2 °F 40.2 °F 30.14 in Calm     51% 0.00 in 387 W/m2
11:44 58.2 °F 40.5 °F 30.14 in Calm     51.6% 0.00 in 577 W/m2
11:49 58.4 °F 40.7 °F 30.15 in Calm   1 mph 51.7% 0.00 in 624 W/m2
11:54 58.5 °F 40.8 °F 30.14 in Calm   1 mph 51.6% 0.00 in 626 W/m2
11:59 58.3 °F 40.3 °F 30.14 in Calm   1 mph 51.1% 0.00 in 626 W/m2
12:00 58.2 °F 40.7 °F 30.14 in Calm   1 mph 52% 0.00 in 42 W/m2
12:09 57.5 °F 40.6 °F 30.14 in Calm     53.2% 0.00 in 647 W/m2
12:14 57.6 °F 41.3 °F 30.14 in Calm   1 mph 54.4% 0.00 in 647 W/m2
12:19 57.7 °F 41.3 °F 30.14 in Calm   1 mph 54.3% 0.00 in 624 W/m2
12:24 57.7 °F 40.8 °F 30.13 in Calm   1 mph 53.2% 0.00 in 197 W/m2
12:29 57.7 °F 41.5 °F 30.14 in Calm   1 mph 54.7% 0.00 in 272 W/m2
12:34 57.7 °F 41.2 °F 30.13 in SSW 0.1 mph 1 mph 54.1% 0.00 in 179 W/m2
12:39 57.4 °F 40.7 °F 30.13 in Calm   1 mph 53.7% 0.00 in 202 W/m2
12:44 57.4 °F 41.8 °F 30.13 in WSW 0.1 mph 2 mph 55.9% 0.00 in 411 W/m2
12:49 57.6 °F 41.9 °F 30.13 in Calm   2 mph 55.8% 0.00 in 137 W/m2
12:54 57.7 °F 42 °F 30.13 in WSW 0.8 mph 4 mph 55.8% 0.00 in 130 W/m2
12:59 57.9 °F 42.3 °F 30.12 in WSW 0.9 mph 5 mph 56% 0.00 in 139 W/m2
13:04 58.2 °F 42.1 °F 30.12 in WSW 0.4 mph 5 mph 54.9% 0.00 in 114 W/m2
13:09 58.5 °F 42.6 °F 30.12 in Calm   3 mph 55.4% 0.00 in 420 W/m2
13:14 58.7 °F 43.1 °F 30.12 in WSW 0.1 mph 3 mph 56.1% 0.00 in 334 W/m2
13:19 58.8 °F 42.5 °F 30.12 in SW 0.3 mph 5 mph 54.8% 0.00 in 186 W/m2
13:24 58.6 °F 42.6 °F 30.11 in Calm   5 mph 55.1% 0.00 in 206 W/m2
13:29 58.8 °F 43.7 °F 30.11 in Calm   5 mph 57.2% 0.00 in 206 W/m2
13:34 58.9 °F 43.6 °F 30.11 in Calm   5 mph 56.7% 0.00 in 134 W/m2
13:39 59 °F 43.5 °F 30.10 in Calm   1 mph 56.3% 0.00 in 575 W/m2
13:44 59 °F 43.3 °F 30.10 in Calm   1 mph 55.9% 0.00 in 526 W/m2
13:49 59 °F 43.6 °F 30.10 in Calm   1 mph 56.7% 0.00 in 229 W/m2
13:54 59.1 °F 44.3 °F 30.10 in Calm   1 mph 57.8% 0.00 in 383 W/m2
13:59 59.4 °F 44.6 °F 30.10 in WNW 0.4 mph 3 mph 58% 0.00 in 374 W/m2
14:04 59.8 °F 44.6 °F 30.09 in Calm   3 mph 57.3% 0.00 in 211 W/m2
14:09 60.2 °F 45.4 °F 30.09 in Calm   1 mph 58% 0.00 in 207 W/m2
14:14 60.5 °F 44.7 °F 30.09 in Calm   1 mph 55.9% 0.00 in 241 W/m2
14:19 60.7 °F 44.5 °F 30.09 in WSW 0.4 mph 6 mph 55% 0.00 in 427 W/m2
14:24 60.9 °F 44.5 °F 30.09 in WSW 0.6 mph 6 mph 54.7% 0.00 in 475 W/m2
14:29 61.1 °F 44.4 °F 30.09 in West 0.1 mph 6 mph 54.2% 0.00 in 206 W/m2
14:34 61.1 °F 44.2 °F 30.09 in WSW 0.2 mph 6 mph 53.6% 0.00 in 141 W/m2
14:39 61.1 °F 44.4 °F 30.09 in WSW 0.4 mph 6 mph 54% 0.00 in 153 W/m2
14:44 61.1 °F 44.5 °F 30.09 in Calm   6 mph 54.4% 0.00 in 269 W/m2
14:49 61.1 °F 44.7 °F 30.09 in WSW 0.5 mph 10 mph 54.7% 0.00 in 171 W/m2
14:54 61.1 °F 44.8 °F 30.09 in WSW 0.1 mph 10 mph 54.9% 0.00 in 160 W/m2
14:59 61.1 °F 44 °F 30.09 in WSW 0.1 mph 10 mph 53.2% 0.00 in 148 W/m2
15:04 61.1 °F 44.8 °F 30.09 in WSW 0.1 mph 10 mph 54.8% 0.00 in 251 W/m2
15:09 61.1 °F 44.9 °F 30.09 in Calm   1 mph 55.1% 0.00 in 202 W/m2
15:14 61.1 °F 44.4 °F 30.09 in West 0.2 mph 4 mph 54% 0.00 in 241 W/m2
15:19 61.1 °F 44.3 °F 30.09 in SW 0.3 mph 4 mph 54% 0.00 in 176 W/m2
15:24 60.9 °F 44.4 °F 30.09 in Calm   4 mph 54.6% 0.00 in 193 W/m2
15:29 60.8 °F 44.6 °F 30.09 in SW 0.6 mph 7 mph 55.2% 0.00 in 207 W/m2
15:34 60.6 °F 44.4 °F 30.09 in Calm   7 mph 55.2% 0.00 in 202 W/m2
15:39 60.3 °F 44.7 °F 30.09 in Calm   1 mph 56.2% 0.00 in 114 W/m2
15:44 60.1 °F 45.1 °F 30.09 in Calm   1 mph 57.5% 0.00 in 111 W/m2
15:49 60 °F 44.8 °F 30.09 in Calm   1 mph 57.3% 0.00 in 114 W/m2
15:54 59.9 °F 45.2 °F 30.09 in Calm   1 mph 58.3% 0.00 in 114 W/m2
15:59 59.8 °F 45.3 °F 30.09 in SW 0.1 mph 3 mph 58.6% 0.00 in 97 W/m2
16:00 59.7 °F 45.4 °F 30.09 in Calm   3 mph 59% 0.00 in 93 W/m2
16:09 59.6 °F 45.2 °F 30.10 in SW 0.1 mph 1 mph 58.8% 0.00 in 118 W/m2
16:14 59.5 °F 45.2 °F 30.10 in Calm   1 mph 59% 0.00 in 120 W/m2
16:19 59.5 °F 45.4 °F 30.10 in Calm   1 mph 59.5% 0.00 in 118 W/m2
16:24 59.6 °F 45.8 °F 30.10 in Calm   1 mph 60% 0.00 in 107 W/m2
16:29 59.8 °F 45.8 °F 30.10 in WSW 0.2 mph 5 mph 59.7% 0.00 in 65 W/m2
16:34 59.9 °F 45.3 °F 30.10 in Calm   5 mph 58.3% 0.00 in 47 W/m2
16:39 59.8 °F 45.3 °F 30.10 in Calm   2 mph 58.6% 0.00 in 39 W/m2
16:44 59.7 °F 45.3 °F 30.09 in Calm   2 mph 59% 0.00 in 32 W/m2
16:49 59.5 °F 45.2 °F 30.09 in WSW 0.6 mph 5 mph 59% 0.00 in 32 W/m2
16:54 59.3 °F 44.8 °F 30.10 in Calm   5 mph 58.5% 0.00 in 25 W/m2
16:59 59.1 °F 45.2 °F 30.10 in Calm   5 mph 60% 0.00 in 28 W/m2
17:04 58.9 °F 45.8 °F 30.10 in Calm   5 mph 61.7% 0.00 in 33 W/m2
17:09 58.8 °F 46.4 °F 30.10 in Calm     63.3% 0.00 in 32 W/m2
17:14 58.7 °F 46.5 °F 30.10 in Calm     63.8% 0.00 in 21 W/m2
17:19 58.6 °F 46.2 °F 30.10 in Calm     63.3% 0.00 in 21 W/m2
17:24 58.4 °F 46 °F 30.10 in Calm     63.2% 0.00 in 21 W/m2
17:29 58.2 °F 45.7 °F 30.10 in WSW 0.1 mph 3 mph 63% 0.00 in 16 W/m2
17:34 57.9 °F 45.5 °F 30.10 in West 0.2 mph 6 mph 63.3% 0.00 in 12 W/m2
17:39 57.7 °F 45.6 °F 30.11 in Calm   6 mph 64% 0.00 in 9 W/m2
17:44 57.4 °F 45.3 °F 30.11 in West 0.2 mph 6 mph 64% 0.00 in 7 W/m2
17:49 57.1 °F 45.5 °F 30.10 in Calm   6 mph 64.9% 0.00 in 5 W/m2
17:54 56.8 °F 45.2 °F 30.10 in Calm   6 mph 65% 0.00 in 0 W/m2
17:59 56.6 °F 45.4 °F 30.10 in Calm   6 mph 66% 0.00 in 0 W/m2
18:04 56.3 °F 45.1 °F 30.11 in Calm   6 mph 66% 0.00 in 0 W/m2
18:09 56 °F 45.1 °F 30.11 in Calm     66.6% 0.00 in 0 W/m2
18:14 55.7 °F 45 °F 30.11 in Calm     67% 0.00 in 0 W/m2
18:19 55.4 °F 44.7 °F 30.11 in Calm     67% 0.00 in 0 W/m2
18:24 55.2 °F 44.8 °F 30.11 in Calm     67.9% 0.00 in 0 W/m2
18:29 54.9 °F 44.9 °F 30.11 in Calm     68.9% 0.00 in 0 W/m2
18:34 54.7 °F 44.8 °F 30.12 in Calm   1 mph 69.1% 0.00 in 0 W/m2
18:39 54.5 °F 45 °F 30.12 in Calm   1 mph 70.1% 0.00 in 0 W/m2
18:44 54.4 °F 45.2 °F 30.12 in Calm   1 mph 71% 0.00 in 0 W/m2
18:49 54.4 °F 45.2 °F 30.12 in Calm   1 mph 71% 0.00 in 0 W/m2
18:54 54.3 °F 45.3 °F 30.12 in Calm   1 mph 71.6% 0.00 in 0 W/m2
18:59 54.3 °F 45.2 °F 30.12 in Calm   1 mph 71.3% 0.00 in 0 W/m2
19:04 54.2 °F 45.3 °F 30.12 in Calm   1 mph 71.7% 0.00 in 0 W/m2
19:09 54.2 °F 45.3 °F 30.12 in Calm     72% 0.00 in 0 W/m2
19:14 54.1 °F 45.3 °F 30.12 in Calm     72.1% 0.00 in 0 W/m2
19:19 54 °F 45.6 °F 30.12 in Calm     73% 0.00 in 0 W/m2
19:24 54 °F 45.6 °F 30.12 in Calm     73% 0.00 in 0 W/m2
19:29 54 °F 45.6 °F 30.12 in Calm     73% 0.00 in 0 W/m2
19:34 54 °F 45.6 °F 30.12 in Calm     73% 0.00 in 0 W/m2
19:39 54 °F 45.6 °F 30.12 in Calm     73% 0.00 in 0 W/m2
19:44 54 °F 45.6 °F 30.12 in Calm     73% 0.00 in 0 W/m2
19:49 54 °F 45.6 °F 30.12 in Calm     73% 0.00 in 0 W/m2
19:54 54 °F 45.6 °F 30.11 in Calm     73% 0.00 in 0 W/m2
19:59 54 °F 45.6 °F 30.11 in Calm     73% 0.00 in 0 W/m2
20:00 54 °F 45.6 °F 30.11 in Calm     73% 0.00 in 0 W/m2
20:09 54.1 °F 46 °F 30.11 in Calm     74% 0.00 in 0 W/m2
20:14 54.1 °F 46.1 °F 30.11 in Calm     74.3% 0.00 in 0 W/m2
20:19 54.1 °F 46.4 °F 30.11 in Calm     75% 0.00 in 0 W/m2
20:24 54.1 °F 46.4 °F 30.12 in Calm     75% 0.00 in 0 W/m2
20:29 54.1 °F 46.3 °F 30.12 in Calm     75% 0.00 in 0 W/m2
20:34 54 °F 46.3 °F 30.11 in Calm     75% 0.00 in 0 W/m2
20:39 54 °F 46.4 °F 30.11 in Calm     75.4% 0.00 in 0 W/m2
20:44 54.1 °F 46.7 °F 30.11 in Calm     76% 0.00 in 0 W/m2
20:49 54.1 °F 46.7 °F 30.11 in Calm     76% 0.00 in 0 W/m2
20:54 54.1 °F 46.8 °F 30.11 in Calm     76.2% 0.00 in 0 W/m2
20:59 54.2 °F 47 °F 30.12 in Calm     76.6% 0.00 in 0 W/m2
21:04 54.2 °F 47.2 °F 30.12 in Calm     77% 0.00 in 0 W/m2
21:09 54.2 °F 47.2 °F 30.12 in Calm     77% 0.00 in 0 W/m2
21:30 54.3 °F 47.3 °F 30.13 in Calm     77% 0.00 in 0 W/m2
22:00 54.2 °F 47.5 °F 30.13 in Calm     78% 0.00 in 0 W/m2
22:30 54 °F 49 °F 30.14 in Calm     83% 0.00 in 0 W/m2
23:24 53.2 °F 49.1 °F 30.15 in Calm     86% 0.02 in 0 W/m2
23:29 53 °F 49.2 °F 30.15 in Calm     86.7% 0.02 in 0 W/m2
23:34 52.9 °F 49.2 °F 30.15 in Calm     87% 0.02 in 0 W/m2
23:39 52.8 °F 49.3 °F 30.14 in Calm     88% 0.02 in 0 W/m2
23:44 52.7 °F 49.2 °F 30.14 in Calm     88% 0.03 in 0 W/m2
23:49 52.5 °F 49.2 °F 30.14 in Calm     88.4% 0.03 in 0 W/m2
23:54 52.4 °F 49.3 °F 30.14 in Calm     89% 0.03 in 0 W/m2
23:59 52.4 °F 49.4 °F 30.14 in Calm     89.6% 0.03 in 0 W/m2
Hartford County Weather
Compliments of Weather Underground - 2 mb